Time;durP1;ratioP1;P1;durP2;ratioP2;P2;SDS_P1;SDS_P2;PMS_P1;PMS_P2;Temp;Humidity;BMP_temperature;BMP_pressure;BME280_temperature;BME280_humidity;BME280_pressure;Samples;Min_cycle;Max_cycle;Signal;HPM_P1;HPM_P2
2023/01/02 00:00:10;;;;;;;8.10;4.65;;;;;;;10.64;62.67;101104.36;1684036;84;21069;-67
2023/01/02 00:02:39;;;;;;;7.03;4.53;;;;;;;10.67;62.62;101115.99;1690666;84;21048;-66
2023/01/02 00:05:08;;;;;;;8.03;4.80;;;;;;;10.74;62.46;101104.08;1701989;84;21056;-67
2023/01/02 00:07:35;;;;;;;7.15;4.28;;;;;;;10.80;62.30;101094.94;1685951;84;21063;-66
2023/01/02 00:10:01;;;;;;;8.45;4.83;;;;;;;10.80;62.27;101103.67;1689551;84;21175;-67
2023/01/02 00:12:29;;;;;;;7.92;5.12;;;;;;;10.79;62.22;101099.34;1691221;84;21111;-65
2023/01/02 00:14:56;;;;;;;7.53;4.67;;;;;;;10.77;62.31;101106.02;1691929;82;21060;-66
2023/01/02 00:17:22;;;;;;;8.78;5.30;;;;;;;10.77;62.35;101111.77;1676554;84;21083;-66
2023/01/02 00:19:49;;;;;;;7.20;4.58;;;;;;;10.76;62.35;101116.69;1701828;84;21075;-67
2023/01/02 00:22:15;;;;;;;6.92;4.45;;;;;;;10.73;62.38;101105.05;1701534;82;21167;-66
2023/01/02 00:24:42;;;;;;;9.43;4.37;;;;;;;10.75;62.42;101101.83;1697270;84;21700;-67
2023/01/02 00:27:09;;;;;;;6.90;4.67;;;;;;;10.81;62.30;101102.73;1684080;84;21110;-68
2023/01/02 00:29:37;;;;;;;7.95;4.62;;;;;;;10.84;62.24;101099.86;1688812;84;21497;-67
2023/01/02 00:32:04;;;;;;;7.12;4.65;;;;;;;10.84;62.24;101101.66;1689985;84;21032;-66
2023/01/02 00:34:31;;;;;;;7.65;4.40;;;;;;;10.82;62.30;101098.30;1675074;84;21140;-66
2023/01/02 00:36:58;;;;;;;8.73;5.00;;;;;;;10.79;62.36;101103.29;1674286;84;21075;-66
2023/01/02 00:39:26;;;;;;;8.55;5.15;;;;;;;10.77;62.37;101099.44;1678058;84;21131;-66
2023/01/02 00:41:53;;;;;;;8.75;4.58;;;;;;;10.74;62.49;101098.37;1675775;83;21063;-66
2023/01/02 00:44:21;;;;;;;6.37;3.92;;;;;;;10.73;62.57;101097.98;1737615;80;21068;-66
2023/01/02 00:46:47;;;;;;;7.45;4.33;;;;;;;10.82;62.44;101096.50;1740394;81;21247;-67
2023/01/02 00:49:14;;;;;;;8.08;4.87;;;;;;;10.85;62.37;101102.88;1745098;82;21086;-67
2023/01/02 00:51:42;;;;;;;8.10;4.70;;;;;;;10.85;62.37;101107.30;1742720;80;21126;-66
2023/01/02 00:54:09;;;;;;;7.25;4.37;;;;;;;10.84;62.34;101102.49;1739660;82;21129;-66
2023/01/02 00:56:35;;;;;;;8.63;4.47;;;;;;;10.82;62.40;101119.36;1746231;81;21042;-68
2023/01/02 00:59:02;;;;;;;8.63;4.95;;;;;;;10.79;62.46;101111.19;1735869;82;21224;-67
2023/01/02 01:01:29;;;;;;;6.60;4.55;;;;;;;10.75;62.49;101113.19;1728193;82;21015;-66
2023/01/02 01:03:55;;;;;;;7.22;4.55;;;;;;;10.75;62.61;101113.67;1696196;82;21075;-65
2023/01/02 01:06:22;;;;;;;7.58;4.85;;;;;;;10.81;62.53;101111.08;1733540;82;21098;-68
2023/01/02 01:08:48;;;;;;;6.87;4.45;;;;;;;10.83;62.40;101119.25;1728863;80;21525;-65
2023/01/02 01:11:16;;;;;;;7.47;4.60;;;;;;;10.81;62.46;101113.72;1740594;81;21223;-66
2023/01/02 01:13:44;;;;;;;7.80;5.10;;;;;;;10.78;62.48;101108.20;1733439;82;21053;-67
2023/01/02 01:16:14;;;;;;;7.72;5.12;;;;;;;10.75;62.52;101107.93;1715033;82;21066;-66
2023/01/02 01:18:40;;;;;;;9.70;4.87;;;;;;;10.72;62.61;101107.30;1711149;82;21041;-64
2023/01/02 01:21:15;;;;;;;6.85;3.95;;;;;;;10.69;62.67;101124.16;1690896;83;21106;-66
2023/01/02 01:23:42;;;;;;;7.87;4.43;;;;;;;10.68;62.71;101126.91;1701123;82;21239;-67
2023/01/02 01:26:11;;;;;;;7.65;4.62;;;;;;;10.72;62.63;101113.40;1707552;83;21086;-67
2023/01/02 01:28:38;;;;;;;9.00;4.40;;;;;;;10.72;62.56;101113.40;1706517;83;21066;-66
2023/01/02 01:31:09;;;;;;;7.65;4.67;;;;;;;10.69;62.70;101110.14;1740355;81;21027;-68
2023/01/02 01:33:35;;;;;;;7.28;4.55;;;;;;;10.65;62.70;101109.52;1738605;82;21070;-66
2023/01/02 01:36:04;;;;;;;7.90;4.97;;;;;;;10.61;62.78;101110.69;1741947;80;21196;-67
2023/01/02 01:38:32;;;;;;;8.90;4.90;;;;;;;10.56;62.91;101110.99;1738845;80;21106;-65
2023/01/02 01:40:58;;;;;;;9.10;5.22;;;;;;;10.51;63.06;101122.31;1730948;82;21554;-67
2023/01/02 01:43:42;;;;;;;6.95;4.22;;;;;;;10.52;63.10;101116.56;1735338;81;21091;-66
2023/01/02 01:46:30;;;;;;;6.97;4.60;;;;;;;10.56;63.03;101118.89;1736682;81;21001;-67
2023/01/02 01:49:25;;;;;;;7.55;4.60;;;;;;;10.56;62.95;101116.26;1739830;82;21071;-66
2023/01/02 01:51:56;;;;;;;8.18;4.97;;;;;;;10.52;63.13;101123.14;1740272;81;21453;-70
2023/01/02 01:54:35;;;;;;;6.85;4.37;;;;;;;10.44;63.26;101117.10;1737842;82;20967;-67
2023/01/02 01:57:17;;;;;;;6.90;4.87;;;;;;;10.40;63.32;101115.61;1740232;82;21012;-68
2023/01/02 01:59:44;;;;;;;8.03;5.05;;;;;;;10.35;63.51;101118.54;1736085;82;21079;-70
2023/01/02 02:02:11;;;;;;;8.40;4.75;;;;;;;10.32;63.62;101102.99;1736503;80;21851;-69
2023/01/02 02:04:37;;;;;;;8.18;5.28;;;;;;;10.29;63.73;101122.02;1737176;81;21510;-66
2023/01/02 02:07:05;;;;;;;6.95;4.62;;;;;;;10.35;63.68;101125.60;1741683;82;21063;-67
2023/01/02 02:09:39;;;;;;;8.88;4.75;;;;;;;10.37;63.59;101115.81;1739332;82;21044;-67
2023/01/02 02:12:06;;;;;;;7.80;4.78;;;;;;;10.38;63.64;101121.45;1742881;80;21086;-67
2023/01/02 02:14:33;;;;;;;7.50;4.62;;;;;;;10.37;63.71;101125.88;1738051;81;21477;-68
2023/01/02 02:17:05;;;;;;;9.93;5.45;;;;;;;10.36;63.72;101125.98;1742682;80;21160;-68
2023/01/02 02:20:04;;;;;;;7.50;4.92;;;;;;;10.34;63.73;101127.84;1733246;81;21047;-68
2023/01/02 02:23:03;;;;;;;7.60;4.60;;;;;;;10.31;63.81;101128.88;1726944;82;21484;-67
2023/01/02 02:25:47;;;;;;;8.15;4.72;;;;;;;10.30;63.87;101141.66;1720195;82;21067;-67
2023/01/02 02:28:53;;;;;;;8.88;5.53;;;;;;;10.33;63.77;101130.12;1698080;82;21079;-67
2023/01/02 02:31:47;;;;;;;7.35;5.00;;;;;;;10.35;63.82;101129.55;1695865;84;21074;-68
2023/01/02 02:34:20;;;;;;;8.83;5.10;;;;;;;10.32;63.86;101144.22;1703804;82;21592;-66
2023/01/02 02:37:09;;;;;;;8.73;5.17;;;;;;;10.26;64.10;101140.66;1703965;83;21084;-66
2023/01/02 02:39:44;;;;;;;7.80;5.10;;;;;;;10.22;64.21;101143.95;1699412;83;21102;-66
2023/01/02 02:42:48;;;;;;;8.33;4.92;;;;;;;10.17;64.37;101139.02;1703461;83;21020;-68
2023/01/02 02:45:33;;;;;;;8.33;5.03;;;;;;;10.16;64.41;101139.95;1706465;83;21087;-66
2023/01/02 02:48:17;;;;;;;8.05;4.78;;;;;;;10.21;64.33;101152.80;1704257;83;21063;-66
2023/01/02 02:51:07;;;;;;;7.90;4.80;;;;;;;10.21;64.35;101159.37;1699763;83;21511;-67
2023/01/02 02:53:42;;;;;;;8.80;5.35;;;;;;;10.17;64.50;101160.50;1677854;84;21514;-67
2023/01/02 02:56:10;;;;;;;9.33;5.60;;;;;;;10.14;64.58;101173.41;1706382;83;21229;-68
2023/01/02 02:58:38;;;;;;;8.95;5.80;;;;;;;10.12;64.64;101176.61;1706501;83;21158;-68
2023/01/02 03:01:09;;;;;;;8.38;5.25;;;;;;;10.09;64.72;101181.23;1695163;83;21157;-67
2023/01/02 03:03:35;;;;;;;9.53;5.67;;;;;;;10.09;64.78;101191.75;1702322;83;21611;-67
2023/01/02 03:06:20;;;;;;;8.95;5.60;;;;;;;10.13;64.73;101184.85;1700980;83;21488;-66
2023/01/02 03:09:24;;;;;;;32.50;16.52;;;;;;;10.17;64.58;101190.75;1703387;83;21130;-67
2023/01/02 03:12:19;;;;;;;53.25;27.58;;;;;;;10.15;64.65;101192.16;1702899;83;22322;-66
2023/01/02 03:15:00;;;;;;;48.20;26.52;;;;;;;10.12;64.69;101188.89;1707816;83;21123;-68
2023/01/02 03:17:51;;;;;;;49.05;25.85;;;;;;;10.06;64.72;101200.67;1700748;83;21090;-67
2023/01/02 03:20:18;;;;;;;54.42;31.60;;;;;;;9.99;64.91;101200.22;1680852;84;21119;-67
2023/01/02 03:22:51;;;;;;;50.35;31.25;;;;;;;9.97;65.06;101197.30;1699209;83;21123;-67
2023/01/02 03:25:18;;;;;;;40.30;23.98;;;;;;;10.00;65.00;101199.29;1706835;82;21054;-66
2023/01/02 03:27:45;;;;;;;34.23;23.00;;;;;;;10.04;64.95;101201.24;1711847;83;21004;-68
2023/01/02 03:30:16;;;;;;;31.20;20.68;;;;;;;10.01;64.99;101190.92;1699121;83;21046;-66
2023/01/02 03:32:51;;;;;;;23.32;14.50;;;;;;;9.98;65.05;101202.95;1694329;84;21127;-66
2023/01/02 03:35:23;;;;;;;22.95;16.55;;;;;;;9.95;65.11;101193.94;1690661;84;21896;-67
2023/01/02 03:37:53;;;;;;;19.98;15.15;;;;;;;9.92;65.16;101184.48;1695398;84;21083;-67
2023/01/02 03:40:27;;;;;;;13.05;9.45;;;;;;;9.89;65.27;101189.09;1692147;84;21653;-68
2023/01/02 03:43:22;;;;;;;12.30;7.08;;;;;;;9.87;65.39;101190.50;1687042;83;21034;-68
2023/01/02 03:46:24;;;;;;;11.57;6.30;;;;;;;9.92;65.25;101188.42;1695443;84;20993;-68
2023/01/02 03:48:57;;;;;;;10.95;8.10;;;;;;;9.98;65.17;101195.05;1689197;84;21137;-67
2023/01/02 03:51:23;;;;;;;10.48;7.67;;;;;;;9.99;65.19;101199.38;1707947;83;21578;-68
2023/01/02 03:53:51;;;;;;;9.85;7.55;;;;;;;9.99;65.20;101202.02;1707354;83;21060;-68
2023/01/02 03:56:49;;;;;;;8.78;6.22;;;;;;;9.97;65.23;101202.56;1699895;83;21114;-68
2023/01/02 03:59:27;;;;;;;8.83;6.03;;;;;;;9.95;65.36;101210.58;1701939;83;21018;-67
2023/01/02 04:02:10;;;;;;;10.15;5.83;;;;;;;9.89;65.47;101219.33;1703807;83;21203;-68
2023/01/02 04:04:58;;;;;;;11.28;6.33;;;;;;;9.87;65.57;101220.73;1708157;83;21090;-68
2023/01/02 04:07:30;;;;;;;9.08;5.58;;;;;;;9.92;65.43;101223.91;1688013;83;21045;-68
2023/01/02 04:09:56;;;;;;;8.83;5.00;;;;;;;9.99;65.36;101229.63;1656896;84;21054;-68
2023/01/02 04:12:23;;;;;;;10.18;5.45;;;;;;;10.01;65.26;101229.87;1675989;84;21075;-66
2023/01/02 04:14:59;;;;;;;9.63;6.33;;;;;;;9.98;65.29;101236.64;1722788;82;21784;-67
2023/01/02 04:17:26;;;;;;;10.15;5.50;;;;;;;10.00;65.34;101232.61;1714025;83;21567;-68
2023/01/02 04:19:59;;;;;;;9.93;6.22;;;;;;;10.04;65.26;101232.80;1720393;82;21534;-68
2023/01/02 04:22:35;;;;;;;9.63;6.03;;;;;;;10.03;65.18;101231.09;1696161;84;21126;-68
2023/01/02 04:25:14;;;;;;;8.55;5.33;;;;;;;10.04;65.05;101247.26;1696779;84;21062;-68
2023/01/02 04:27:52;;;;;;;7.70;5.00;;;;;;;10.02;64.91;101245.20;1697940;84;21782;-68
2023/01/02 04:30:19;;;;;;;7.28;4.75;;;;;;;10.02;64.65;101253.09;1716613;83;21129;-67
2023/01/02 04:32:46;;;;;;;8.40;5.50;;;;;;;10.08;64.20;101255.31;1718317;83;21063;-68
2023/01/02 04:35:18;;;;;;;7.97;5.28;;;;;;;10.04;63.93;101252.52;1717656;82;21122;-68
2023/01/02 04:37:45;;;;;;;9.53;5.42;;;;;;;10.00;64.09;101259.77;1686802;84;21503;-68
2023/01/02 04:40:21;;;;;;;8.23;5.58;;;;;;;9.95;63.80;101263.61;1695846;83;21838;-68
2023/01/02 04:42:48;;;;;;;7.67;5.55;;;;;;;9.88;63.60;101271.52;1712549;82;21101;-68
2023/01/02 04:45:16;;;;;;;8.45;5.37;;;;;;;9.78;63.45;101277.33;1718621;83;21066;-68
2023/01/02 04:47:42;;;;;;;9.48;6.17;;;;;;;9.68;63.32;101291.98;1703795;83;21031;-68
2023/01/02 04:50:09;;;;;;;8.23;5.70;;;;;;;9.54;63.57;101287.59;1696100;83;21063;-68
2023/01/02 04:52:36;;;;;;;8.30;5.00;;;;;;;9.51;64.33;101289.56;1699029;83;21216;-68
2023/01/02 04:55:04;;;;;;;7.80;4.75;;;;;;;9.56;64.28;101288.33;1699739;83;21065;-68
2023/01/02 04:57:31;;;;;;;8.68;5.55;;;;;;;9.58;64.17;101294.36;1706860;83;21103;-68
2023/01/02 04:59:58;;;;;;;10.93;5.62;;;;;;;9.60;64.12;101292.92;1704083;83;21050;-66
2023/01/02 05:02:24;;;;;;;8.05;5.53;;;;;;;9.59;64.27;101303.08;1709302;83;21067;-68
2023/01/02 05:04:52;;;;;;;9.65;5.92;;;;;;;9.58;64.17;101306.19;1708275;83;21086;-68
2023/01/02 05:07:19;;;;;;;12.40;5.15;;;;;;;9.52;63.98;101306.55;1698076;82;21057;-68
2023/01/02 05:09:46;;;;;;;8.00;5.50;;;;;;;9.44;64.08;101312.25;1708247;83;21106;-67
2023/01/02 05:12:12;;;;;;;11.10;6.97;;;;;;;9.40;64.30;101312.08;1698909;83;21032;-68
2023/01/02 05:14:38;;;;;;;9.65;6.45;;;;;;;9.36;64.52;101319.75;1703410;83;21102;-68
2023/01/02 05:17:05;;;;;;;9.63;5.67;;;;;;;9.37;65.00;101321.45;1700681;83;21259;-67
2023/01/02 05:19:31;;;;;;;9.33;5.75;;;;;;;9.46;65.50;101319.60;1688705;83;21063;-67
2023/01/02 05:24:42;;;;;;;8.60;5.35;;;;;;;9.62;65.48;101323.44;1702839;83;21082;-66
2023/01/02 05:27:10;;;;;;;8.15;5.80;;;;;;;9.66;65.63;101335.44;1706338;83;21547;-66
2023/01/02 05:29:37;;;;;;;8.73;6.12;;;;;;;9.67;65.42;101349.45;1692936;83;21762;-66
2023/01/02 05:32:03;;;;;;;8.93;6.33;;;;;;;9.64;65.03;101345.69;1693813;84;21017;-66
2023/01/02 05:34:30;;;;;;;8.85;6.15;;;;;;;9.59;64.88;101349.06;1697704;84;21551;-66
2023/01/02 05:36:57;;;;;;;9.68;6.40;;;;;;;9.52;64.51;101343.33;1683348;83;21535;-66
2023/01/02 05:39:23;;;;;;;8.55;6.03;;;;;;;9.43;64.60;101343.88;1677653;83;21122;-66
2023/01/02 05:41:50;;;;;;;9.73;6.25;;;;;;;9.35;64.39;101346.14;1699041;84;21510;-66
2023/01/02 05:44:16;;;;;;;9.33;5.65;;;;;;;9.30;64.59;101345.92;1698824;84;21334;-67
2023/01/02 05:46:43;;;;;;;10.50;5.67;;;;;;;9.33;64.45;101345.36;1694146;83;21071;-66
2023/01/02 05:49:10;;;;;;;9.08;6.40;;;;;;;9.35;64.21;101344.83;1691671;83;21086;-67
2023/01/02 05:51:37;;;;;;;8.95;5.92;;;;;;;9.29;63.99;101347.33;1686905;84;21095;-68
2023/01/02 05:54:04;;;;;;;8.25;5.97;;;;;;;9.20;64.10;101347.41;1675905;83;21316;-67
2023/01/02 05:56:31;;;;;;;10.35;6.70;;;;;;;9.10;64.08;101347.09;1685689;84;21510;-67
2023/01/02 05:58:58;;;;;;;10.90;6.35;;;;;;;9.00;64.04;101351.67;1698599;83;21119;-67
2023/01/02 06:01:27;;;;;;;8.73;5.95;;;;;;;8.86;64.03;101344.12;1698196;84;21111;-66
2023/01/02 06:03:57;;;;;;;10.35;6.95;;;;;;;8.76;63.87;101346.03;1696646;83;21066;-66
2023/01/02 06:06:26;;;;;;;10.00;7.08;;;;;;;8.64;64.53;101347.13;1699991;83;22237;-67
2023/01/02 06:08:52;;;;;;;9.93;6.22;;;;;;;8.56;64.65;101353.27;1716260;81;21048;-67
2023/01/02 06:11:19;;;;;;;11.50;6.78;;;;;;;8.46;64.66;101347.69;1682969;82;21122;-63
2023/01/02 06:13:45;;;;;;;10.65;7.28;;;;;;;8.46;64.59;101362.59;1729506;81;21094;-67
2023/01/02 06:16:14;;;;;;;11.00;7.17;;;;;;;8.48;64.85;101358.94;1742265;81;21680;-68
2023/01/02 06:18:40;;;;;;;11.40;7.78;;;;;;;8.52;64.88;101366.16;1742491;80;21819;-67
2023/01/02 06:21:09;;;;;;;11.75;7.65;;;;;;;8.48;65.03;101362.87;1680652;83;21031;-67
2023/01/02 06:23:36;;;;;;;14.35;8.58;;;;;;;8.47;65.10;101361.64;1679226;84;21078;-68
2023/01/02 06:26:05;;;;;;;12.13;8.35;;;;;;;8.45;65.13;101372.21;1740893;80;21054;-68
2023/01/02 06:28:32;;;;;;;12.80;7.60;;;;;;;8.41;65.18;101369.36;1736159;81;21530;-68
2023/01/02 06:31:01;;;;;;;12.40;8.45;;;;;;;8.36;65.33;101368.77;1689126;82;21115;-68
2023/01/02 06:33:28;;;;;;;12.50;7.30;;;;;;;8.29;65.19;101372.67;1713427;82;21071;-68
2023/01/02 06:36:07;;;;;;;10.78;7.10;;;;;;;8.23;65.32;101373.83;1681815;82;21058;-69
2023/01/02 06:38:34;;;;;;;12.28;7.22;;;;;;;8.25;65.26;101366.72;1718370;82;21051;-68
2023/01/02 06:53:13;;;;;;;11.08;7.28;;;;;;;9.19;64.02;101381.63;1745475;80;22007;-62
2023/01/02 06:55:53;;;;;;;10.88;6.78;;;;;;;9.34;64.16;101387.30;1721102;82;21053;-62
2023/01/02 06:58:20;;;;;;;8.83;5.78;;;;;;;9.42;64.24;101382.44;1716705;82;22270;-61
2023/01/02 07:00:47;;;;;;;8.95;5.97;;;;;;;9.44;64.23;101386.29;1727166;82;21121;-61
2023/01/02 07:03:15;;;;;;;11.43;6.75;;;;;;;9.37;63.99;101385.80;1726297;82;21072;-61
2023/01/02 07:05:41;;;;;;;9.23;6.15;;;;;;;9.31;64.03;101396.66;1716355;82;21036;-62
2023/01/02 07:08:08;;;;;;;12.68;6.15;;;;;;;9.23;64.04;101403.70;1701799;82;20999;-60
2023/01/02 07:10:35;;;;;;;9.73;6.90;;;;;;;9.15;64.02;101398.52;1706032;82;21240;-61
2023/01/02 07:13:02;;;;;;;10.00;6.58;;;;;;;9.06;64.07;101407.30;1717322;82;21093;-61
2023/01/02 07:15:29;;;;;;;11.75;6.95;;;;;;;8.97;64.09;101405.18;1676194;85;21007;-62
2023/01/02 07:17:55;;;;;;;9.93;6.17;;;;;;;8.91;64.22;101412.11;1693852;82;21079;-61
2023/01/02 07:20:22;;;;;;;11.57;7.12;;;;;;;8.90;64.18;101413.03;1696001;83;21099;-61
2023/01/02 07:22:50;;;;;;;11.75;8.78;;;;;;;8.91;64.45;101416.05;1666242;84;21289;-62
2023/01/02 07:25:19;;;;;;;16.57;9.70;;;;;;;8.98;65.12;101421.33;1708270;82;21013;-61
2023/01/02 07:27:46;;;;;;;12.45;9.53;;;;;;;9.06;65.39;101420.87;1684460;82;21139;-63
2023/01/02 07:30:13;;;;;;;13.15;8.60;;;;;;;9.05;65.61;101428.39;1704337;82;21058;-63
2023/01/02 07:32:42;;;;;;;15.03;11.57;;;;;;;9.06;65.35;101432.23;1717200;82;21059;-64
2023/01/02 07:35:10;;;;;;;16.45;13.03;;;;;;;9.04;65.48;101426.20;1720635;82;21161;-62
2023/01/02 07:37:36;;;;;;;18.30;13.32;;;;;;;9.05;65.81;101429.70;1711107;83;21067;-62
2023/01/02 07:40:07;;;;;;;16.35;12.18;;;;;;;9.10;65.90;101446.03;1703448;82;21586;-62
2023/01/02 07:42:33;;;;;;;17.00;13.85;;;;;;;9.17;65.84;101444.74;1711188;82;21528;-62
2023/01/02 07:45:00;;;;;;;17.05;12.65;;;;;;;9.24;65.75;101453.12;1712051;83;21665;-62
2023/01/02 07:47:27;;;;;;;17.20;12.65;;;;;;;9.24;65.64;101452.64;1711993;83;21850;-62
2023/01/02 07:49:53;;;;;;;15.65;12.68;;;;;;;9.23;65.73;101451.41;1696116;82;21634;-62
2023/01/02 07:52:19;;;;;;;13.68;11.53;;;;;;;9.24;65.78;101445.23;1703726;82;21552;-63
2023/01/02 07:54:46;;;;;;;15.80;11.53;;;;;;;9.28;65.98;101445.45;1713820;82;21082;-62
2023/01/02 07:57:12;;;;;;;14.53;11.35;;;;;;;9.33;66.11;101446.48;1696909;84;21102;-62
2023/01/02 07:59:39;;;;;;;13.15;9.30;;;;;;;9.34;66.19;101439.83;1699526;82;21158;-62
2023/01/02 08:02:09;;;;;;;11.60;8.43;;;;;;;9.40;66.24;101442.11;1724530;82;21035;-62
2023/01/02 08:04:36;;;;;;;11.43;8.65;;;;;;;9.51;66.20;101437.53;1664166;84;21573;-62
2023/01/02 08:07:03;;;;;;;11.48;7.55;;;;;;;9.64;66.17;101432.41;1683824;83;21095;-62
2023/01/02 08:09:30;;;;;;;10.50;7.42;;;;;;;9.74;66.06;101436.17;1705014;83;21058;-62
2023/01/02 08:11:57;;;;;;;12.53;8.13;;;;;;;9.79;66.11;101438.06;1693522;84;21260;-62
2023/01/02 08:14:23;;;;;;;12.07;8.00;;;;;;;9.88;66.06;101433.19;1715739;82;21009;-62
2023/01/02 08:16:50;;;;;;;11.20;7.33;;;;;;;9.94;65.91;101432.83;1697677;83;21085;-62
2023/01/02 08:19:17;;;;;;;13.45;8.50;;;;;;;9.96;65.75;101434.41;1712039;81;21051;-62
2023/01/02 08:21:43;;;;;;;11.05;7.62;;;;;;;10.01;65.71;101439.39;1711559;83;21185;-62
2023/01/02 08:24:10;;;;;;;11.60;7.40;;;;;;;10.07;65.65;101439.03;1705933;83;21255;-63
2023/01/02 08:26:39;;;;;;;10.65;7.72;;;;;;;10.20;65.39;101434.71;1709329;82;21080;-62
2023/01/02 08:29:07;;;;;;;16.12;8.55;;;;;;;10.33;65.10;101441.87;1655431;84;21086;-62
2023/01/02 08:31:34;;;;;;;11.70;7.62;;;;;;;10.40;64.92;101444.48;1729847;82;21015;-63
2023/01/02 08:34:01;;;;;;;11.15;8.75;;;;;;;10.43;64.78;101445.61;1715293;82;21058;-62
2023/01/02 08:36:27;;;;;;;11.85;8.08;;;;;;;10.47;64.71;101446.26;1693685;82;21231;-60
2023/01/02 08:38:54;;;;;;;11.78;8.50;;;;;;;10.50;64.61;101448.70;1696419;82;21142;-61
2023/01/02 08:41:38;;;;;;;11.20;8.23;;;;;;;10.51;64.52;101456.51;1700099;83;20993;-61
2023/01/02 08:44:05;;;;;;;12.00;7.78;;;;;;;10.53;64.30;101453.30;1695334;83;21047;-62
2023/01/02 08:46:32;;;;;;;10.88;7.37;;;;;;;10.56;64.32;101449.16;1703849;83;21607;-61
2023/01/02 08:48:59;;;;;;;11.73;8.28;;;;;;;10.68;64.09;101451.97;1707860;82;22203;-61
2023/01/02 08:51:26;;;;;;;12.68;7.12;;;;;;;10.78;63.95;101445.17;1704272;82;21519;-61
2023/01/02 08:53:52;;;;;;;9.88;7.20;;;;;;;10.84;63.83;101439.49;1701804;82;21528;-61
2023/01/02 08:56:23;;;;;;;11.25;7.47;;;;;;;10.90;63.79;101446.17;1703172;82;21059;-61
2023/01/02 08:59:01;;;;;;;12.75;8.95;;;;;;;10.95;63.53;101442.77;1701066;82;21036;-61
2023/01/02 09:01:28;;;;;;;10.43;7.55;;;;;;;10.97;63.35;101440.87;1705834;82;22279;-61
2023/01/02 09:03:55;;;;;;;10.78;8.10;;;;;;;10.98;63.28;101438.62;1704252;83;21054;-61
2023/01/02 09:06:24;;;;;;;11.53;7.85;;;;;;;11.00;63.25;101431.47;1701984;82;21055;-62
2023/01/02 09:08:51;;;;;;;14.78;7.78;;;;;;;11.04;63.22;101426.84;1702267;83;21060;-62
2023/01/02 09:11:22;;;;;;;11.05;7.62;;;;;;;11.16;63.00;101431.29;1701517;82;21015;-62
2023/01/02 09:13:50;;;;;;;12.58;8.58;;;;;;;11.25;62.73;101433.81;1701588;82;21241;-61
2023/01/02 09:16:17;;;;;;;12.15;8.40;;;;;;;11.27;62.57;101423.53;1660421;85;20997;-62
2023/01/02 09:18:45;;;;;;;11.08;8.13;;;;;;;11.27;62.58;101422.22;1695363;82;21504;-62
2023/01/02 09:21:11;;;;;;;12.63;8.28;;;;;;;11.31;62.56;101419.77;1705431;82;21149;-62
2023/01/02 09:23:37;;;;;;;13.68;8.55;;;;;;;11.36;62.44;101413.33;1706993;83;21064;-63
2023/01/02 09:26:06;;;;;;;12.75;7.90;;;;;;;11.40;62.36;101413.48;1703510;83;21637;-62
2023/01/02 09:28:34;;;;;;;12.15;8.20;;;;;;;11.43;62.30;101415.91;1700084;82;21579;-62
2023/01/02 09:31:06;;;;;;;11.55;7.83;;;;;;;11.51;62.16;101424.16;1701934;82;21049;-60
2023/01/02 09:33:33;;;;;;;12.20;7.78;;;;;;;11.64;61.85;101421.54;1694843;84;21115;-63
2023/01/02 09:36:04;;;;;;;12.18;8.70;;;;;;;11.75;61.50;101421.66;1694987;82;21013;-61
2023/01/02 09:38:31;;;;;;;12.53;8.88;;;;;;;11.79;61.47;101413.06;1696601;83;22212;-62
2023/01/02 09:40:59;;;;;;;13.90;8.98;;;;;;;11.82;61.38;101413.69;1691388;82;21508;-62
2023/01/02 09:43:34;;;;;;;14.28;7.95;;;;;;;11.88;61.30;101419.00;1693938;83;21118;-61
2023/01/02 09:46:01;;;;;;;12.43;8.68;;;;;;;11.92;61.19;101414.39;1702176;82;21590;-62
2023/01/02 09:48:35;;;;;;;12.25;8.68;;;;;;;11.94;61.08;101413.83;1723445;82;21098;-61
2023/01/02 09:51:02;;;;;;;13.25;8.65;;;;;;;11.97;60.95;101413.59;1709683;82;21144;-61
2023/01/02 09:53:31;;;;;;;13.08;8.43;;;;;;;11.98;60.86;101410.02;1705728;82;21025;-61
2023/01/02 09:56:15;;;;;;;12.43;8.03;;;;;;;12.01;60.78;101412.45;1720901;82;21525;-61
2023/01/02 09:59:04;;;;;;;13.53;8.00;;;;;;;12.11;60.52;101408.70;1707734;84;21040;-62
2023/01/02 10:02:07;;;;;;;13.38;9.25;;;;;;;12.19;60.26;101402.41;1705236;82;21061;-62
2023/01/02 10:05:21;;;;;;;15.35;9.03;;;;;;;12.20;60.32;101398.80;1713719;82;21162;-61
2023/01/02 10:08:25;;;;;;;12.45;9.20;;;;;;;12.26;60.33;101402.33;1706884;82;21074;-61
2023/01/02 10:11:31;;;;;;;13.15;9.18;;;;;;;12.31;59.96;101399.37;1710376;82;21082;-62
2023/01/02 10:14:11;;;;;;;13.30;9.15;;;;;;;12.32;59.76;101399.72;1697397;84;21063;-61
2023/01/02 10:16:45;;;;;;;13.55;9.25;;;;;;;12.31;59.78;101390.14;1704883;82;21145;-62
2023/01/02 10:19:26;;;;;;;12.50;9.65;;;;;;;12.30;59.77;101392.40;1718795;82;21802;-62
2023/01/02 10:21:55;;;;;;;13.85;9.55;;;;;;;12.28;59.80;101375.35;1702778;82;21078;-61
2023/01/02 10:24:56;;;;;;;14.30;8.43;;;;;;;12.33;59.83;101375.86;1704345;82;21078;-61
2023/01/02 10:27:31;;;;;;;11.53;8.55;;;;;;;12.46;59.72;101381.11;1706575;82;21082;-61
2023/01/02 10:30:05;;;;;;;13.10;9.55;;;;;;;12.64;59.65;101379.78;1688435;82;21102;-61
2023/01/02 10:32:33;;;;;;;13.80;10.00;;;;;;;12.75;59.26;101378.15;1694154;82;21481;-61
2023/01/02 10:35:12;;;;;;;13.55;9.53;;;;;;;12.82;58.88;101374.92;1721765;81;21033;-62
2023/01/02 10:37:38;;;;;;;14.90;9.75;;;;;;;12.87;58.76;101370.63;1703804;82;21015;-62
2023/01/02 10:40:06;;;;;;;15.45;10.28;;;;;;;12.94;58.65;101373.66;1704032;82;21062;-62
2023/01/02 10:42:33;;;;;;;13.32;9.20;;;;;;;12.99;58.40;101371.52;1699756;82;21818;-63
2023/01/02 10:45:00;;;;;;;13.22;9.70;;;;;;;13.02;58.09;101366.02;1704080;84;21913;-62
2023/01/02 10:47:37;;;;;;;14.80;9.88;;;;;;;13.03;58.16;101363.75;1704697;82;21507;-62
2023/01/02 10:50:06;;;;;;;13.53;9.20;;;;;;;13.07;58.09;101366.51;1705165;84;21618;-63
2023/01/02 10:52:51;;;;;;;13.75;10.32;;;;;;;13.11;57.90;101361.38;1705819;82;21107;-61
2023/01/02 10:55:38;;;;;;;14.80;10.18;;;;;;;13.19;57.78;101362.93;1710853;82;21094;-62
2023/01/02 10:58:20;;;;;;;12.88;9.63;;;;;;;13.27;57.71;101362.85;1708097;82;21272;-62
2023/01/02 11:00:49;;;;;;;15.13;9.33;;;;;;;13.35;57.54;101362.66;1701561;84;21511;-61
2023/01/02 11:03:21;;;;;;;12.73;9.30;;;;;;;13.43;57.36;101362.09;1723839;82;21101;-62
2023/01/02 11:05:54;;;;;;;14.68;9.70;;;;;;;13.48;57.14;101360.39;1731187;82;21046;-62
2023/01/02 11:08:23;;;;;;;13.30;9.40;;;;;;;13.54;57.00;101354.64;1724669;82;21018;-62
2023/01/02 11:10:51;;;;;;;13.43;9.15;;;;;;;13.66;57.01;101355.00;1721132;82;21051;-62
2023/01/02 11:13:20;;;;;;;13.32;9.80;;;;;;;13.79;56.92;101353.58;1724687;81;21031;-62
2023/01/02 11:16:00;;;;;;;13.50;8.98;;;;;;;13.87;56.69;101364.41;1724907;82;21130;-62
2023/01/02 11:18:29;;;;;;;14.90;9.93;;;;;;;13.93;56.34;101361.74;1724207;83;21070;-62
2023/01/02 11:21:03;;;;;;;18.37;10.38;;;;;;;13.97;56.19;101357.91;1724887;82;21101;-62
2023/01/02 11:23:34;;;;;;;16.52;10.40;;;;;;;14.02;56.11;101352.23;1701381;84;21210;-62
2023/01/02 11:26:00;;;;;;;13.20;10.00;;;;;;;14.09;56.18;101355.61;1704506;82;21057;-63
2023/01/02 11:28:28;;;;;;;14.18;9.88;;;;;;;14.17;56.04;101352.36;1725182;83;21058;-62
2023/01/02 11:31:07;;;;;;;16.90;10.48;;;;;;;14.24;55.75;101352.22;1723120;82;21065;-61
2023/01/02 11:33:35;;;;;;;14.13;10.00;;;;;;;14.26;55.56;101350.28;1750876;81;21023;-63
2023/01/02 11:36:11;;;;;;;14.25;9.58;;;;;;;14.31;55.55;101363.16;1744354;81;22284;-64
2023/01/02 11:38:45;;;;;;;14.63;9.45;;;;;;;14.36;55.20;101362.80;1724117;81;21042;-61
2023/01/02 11:44:37;;;;;;;14.65;10.70;;;;;;;14.45;54.99;101369.48;1722574;83;21030;-61
2023/01/02 11:47:04;;;;;;;16.40;10.08;;;;;;;14.49;54.59;101367.43;1693999;82;21807;-62
2023/01/02 11:49:41;;;;;;;14.70;9.28;;;;;;;14.51;54.51;101358.91;1724017;82;22173;-61
2023/01/02 11:52:11;;;;;;;11.20;9.10;;;;;;;14.53;54.48;101364.91;1736057;82;21023;-62
2023/01/02 11:55:05;;;;;;;12.20;8.35;;;;;;;14.56;54.59;101359.37;1694812;83;21050;-63
2023/01/02 11:57:48;;;;;;;12.80;9.18;;;;;;;14.61;54.67;101361.68;1694057;82;21182;-63
2023/01/02 12:00:18;;;;;;;12.07;8.80;;;;;;;14.68;54.64;101359.72;1693903;83;21177;-62